Time;durP1;ratioP1;P1;durP2;ratioP2;P2;SDS_P1;SDS_P2;PMS_P1;PMS_P2;Temp;Humidity;BMP_temperature;BMP_pressure;BME280_temperature;BME280_humidity;BME280_pressure;Samples;Min_cycle;Max_cycle;Signal;HPM_P1;HPM_P2
2022/04/15 00:00:57;;;;;;;;;;;;;;;16.93;57.79;101121.34;4919736;28;125384;-62
2022/04/15 00:03:30;;;;;;;;;;;;;;;16.92;57.48;101117.81;4919699;28;117456;-62
2022/04/15 00:05:56;;;;;;;;;;;;;;;16.90;57.83;101113.78;4921691;28;98407;-62
2022/04/15 00:08:22;;;;;;;;;;;;;;;16.89;57.84;101112.94;4919319;28;128673;-62
2022/04/15 00:10:48;;;;;;;;;;;;;;;16.88;57.79;101107.81;4920091;28;127241;-62
2022/04/15 00:13:19;;;;;;;;;;;;;;;16.87;57.89;101104.28;4920371;28;112002;-63
2022/04/15 00:15:45;;;;;;;;;;;;;;;16.85;57.93;101111.91;4921384;28;98765;-63
2022/04/15 00:18:11;;;;;;;;;;;;;;;16.83;57.78;101108.69;4920219;28;98554;-63
2022/04/15 00:20:37;;;;;;;;;;;;;;;16.83;58.04;101103.25;4924771;28;127948;-62
2022/04/15 00:23:03;;;;;;;;;;;;;;;16.81;58.05;101100.00;4919784;28;117591;-63
2022/04/15 00:25:29;;;;;;;;;;;;;;;16.80;58.10;101101.13;4921029;28;98402;-62
2022/04/15 00:27:55;;;;;;;;;;;;;;;16.79;58.07;101110.38;4904473;28;127271;-62
2022/04/15 00:30:21;;;;;;;;;;;;;;;16.78;57.92;101107.94;4918776;28;126915;-62
2022/04/15 00:32:47;;;;;;;;;;;;;;;16.77;58.20;101112.59;4920750;28;98210;-63
2022/04/15 00:35:13;;;;;;;;;;;;;;;16.76;58.28;101118.34;4920879;28;111137;-63
2022/04/15 00:37:39;;;;;;;;;;;;;;;16.75;57.97;101130.31;4919316;28;127587;-62
2022/04/15 00:40:07;;;;;;;;;;;;;;;16.72;57.96;101126.25;4934452;28;125706;-63
2022/04/15 00:42:33;;;;;;;;;;;;;;;16.71;58.11;101123.81;4918824;28;97971;-63
2022/04/15 00:45:00;;;;;;;;;;;;;;;16.68;58.10;101119.75;4898545;28;129331;-63
2022/04/15 00:47:43;;;;;;;;;;;;;;;16.68;58.02;101119.75;4901006;28;98449;-63
2022/04/15 00:50:09;;;;;;;;;;;;;;;16.66;58.29;101114.63;4917748;28;98329;-63
2022/04/15 00:52:38;;;;;;;;;;;;;;;16.65;58.26;101110.25;4919215;28;116973;-62
2022/04/15 00:55:04;;;;;;;;;;;;;;;16.64;58.31;101111.38;4919178;28;120727;-64
2022/04/15 00:57:36;;;;;;;;;;;;;;;16.64;58.16;101110.56;4922672;28;124176;-63
2022/04/15 01:00:03;;;;;;;;;;;;;;;16.63;58.34;101109.75;4921412;28;97788;-62
2022/04/15 01:02:29;;;;;;;;;;;;;;;16.62;58.49;101110.03;4921877;28;113706;-63
2022/04/15 01:04:56;;;;;;;;;;;;;;;16.60;58.31;101112.25;4922560;28;127693;-63
2022/04/15 01:07:23;;;;;;;;;;;;;;;16.60;58.47;101112.25;4921533;28;128474;-62
2022/04/15 01:09:51;;;;;;;;;;;;;;;16.58;58.63;101117.16;4902770;28;100109;-62
2022/04/15 01:12:18;;;;;;;;;;;;;;;16.57;58.49;101116.34;4903244;28;112564;-62
2022/04/15 01:14:43;;;;;;;;;;;;;;;16.57;58.67;101119.06;4922588;28;102292;-62
2022/04/15 01:17:09;;;;;;;;;;;;;;;16.57;58.42;101115.53;4920700;28;126701;-63
2022/04/15 01:19:35;;;;;;;;;;;;;;;16.55;58.54;101123.22;4926489;28;129547;-65
2022/04/15 01:22:07;;;;;;;;;;;;;;;16.55;58.48;101123.22;4922634;28;117691;-63
2022/04/15 01:24:33;;;;;;;;;;;;;;;16.54;58.79;101124.28;4920861;28;125470;-63
2022/04/15 01:26:59;;;;;;;;;;;;;;;16.53;58.41;101117.22;4922959;28;98419;-63
2022/04/15 01:29:28;;;;;;;;;;;;;;;16.51;58.42;101125.69;4922035;28;126477;-62
2022/04/15 01:31:54;;;;;;;;;;;;;;;16.51;58.72;101122.97;4906790;28;116630;-63
2022/04/15 01:34:20;;;;;;;;;;;;;;;16.51;58.44;101127.63;4909159;28;99023;-62
2022/04/15 01:36:45;;;;;;;;;;;;;;;16.49;58.76;101117.00;4922481;28;127193;-63
2022/04/15 01:39:11;;;;;;;;;;;;;;;16.48;58.73;101129.00;4921904;28;126530;-62
2022/04/15 01:41:40;;;;;;;;;;;;;;;16.47;58.62;101121.94;4922261;28;118276;-62
2022/04/15 01:44:07;;;;;;;;;;;;;;;16.46;58.54;101120.28;4922728;28;98328;-63
2022/04/15 01:46:33;;;;;;;;;;;;;;;16.44;58.72;101120.59;4923579;28;98612;-62
2022/04/15 01:48:59;;;;;;;;;;;;;;;16.43;58.87;101105.38;4921688;28;128184;-63
2022/04/15 01:51:25;;;;;;;;;;;;;;;16.42;58.65;101111.09;4922423;28;116721;-64
2022/04/15 01:53:53;;;;;;;;;;;;;;;16.41;58.69;101113.00;4920780;28;125705;-62
2022/04/15 01:56:19;;;;;;;;;;;;;;;16.40;58.61;101118.75;4932407;28;98559;-63
2022/04/15 01:58:45;;;;;;;;;;;;;;;16.38;59.07;101115.50;4935565;28;126661;-62
2022/04/15 02:01:11;;;;;;;;;;;;;;;16.39;58.72;101119.88;4921502;28;117292;-62
2022/04/15 02:03:37;;;;;;;;;;;;;;;16.35;59.01;101116.91;4921245;28;126907;-64
2022/04/15 02:06:02;;;;;;;;;;;;;;;16.36;58.65;101125.88;4921565;28;127578;-63
2022/04/15 02:08:28;;;;;;;;;;;;;;;16.34;59.05;101115.25;4922129;28;118251;-63
2022/04/15 02:10:54;;;;;;;;;;;;;;;16.33;58.94;101118.28;4921718;28;103447;-63
2022/04/15 02:13:20;;;;;;;;;;;;;;;16.30;59.17;101114.22;4918847;28;128140;-62
2022/04/15 02:15:46;;;;;;;;;;;;;;;16.29;59.13;101114.53;4921416;28;126994;-62
2022/04/15 02:18:13;;;;;;;;;;;;;;;16.26;58.90;101115.91;4922500;28;97932;-62
2022/04/15 02:20:39;;;;;;;;;;;;;;;16.25;58.98;101121.66;4927780;28;98157;-61
2022/04/15 02:23:05;;;;;;;;;;;;;;;16.24;59.03;101120.03;4921093;28;124517;-62
2022/04/15 02:25:31;;;;;;;;;;;;;;;16.23;59.05;101121.13;4922275;28;100639;-62
2022/04/15 02:27:57;;;;;;;;;;;;;;;16.20;59.00;101120.59;4921763;28;108342;-63
2022/04/15 02:30:22;;;;;;;;;;;;;;;16.19;59.39;101124.44;4921646;28;98290;-61
2022/04/15 02:32:54;;;;;;;;;;;;;;;16.17;59.40;101126.63;4920668;28;128152;-63
2022/04/15 02:35:20;;;;;;;;;;;;;;;16.16;58.97;101122.28;4920823;28;127410;-62
2022/04/15 02:37:46;;;;;;;;;;;;;;;16.15;59.05;101119.84;4920962;28;127823;-63
2022/04/15 02:40:12;;;;;;;;;;;;;;;16.13;59.45;101114.69;4919785;28;117973;-63
2022/04/15 02:42:38;;;;;;;;;;;;;;;16.12;59.30;101118.53;4921422;28;105102;-61
2022/04/15 02:45:04;;;;;;;;;;;;;;;16.11;59.10;101116.91;4920309;28;125627;-62
2022/04/15 02:47:30;;;;;;;;;;;;;;;16.11;59.47;101118.78;4921429;28;122891;-63
2022/04/15 02:49:56;;;;;;;;;;;;;;;16.10;59.26;101122.63;4921582;28;116904;-63
2022/04/15 02:52:22;;;;;;;;;;;;;;;16.09;59.54;101116.38;4920622;28;127853;-62
2022/04/15 02:54:48;;;;;;;;;;;;;;;16.08;59.13;101114.75;4935214;28;126845;-61
2022/04/15 02:57:14;;;;;;;;;;;;;;;16.08;59.25;101108.53;4937825;28;127811;-63
2022/04/15 02:59:39;;;;;;;;;;;;;;;16.06;59.43;101106.06;4928353;28;116721;-63
2022/04/15 03:02:05;;;;;;;;;;;;;;;16.06;59.40;101103.34;4920853;28;126983;-61
2022/04/15 03:04:31;;;;;;;;;;;;;;;16.06;59.60;101107.97;4920665;28;128093;-63
2022/04/15 03:06:57;;;;;;;;;;;;;;;16.05;59.72;101111.81;4920420;28;127843;-63
2022/04/15 03:09:25;;;;;;;;;;;;;;;16.04;59.59;101111.00;4921506;28;117369;-63
2022/04/15 03:11:50;;;;;;;;;;;;;;;16.04;59.35;101111.00;4903613;28;98450;-63
2022/04/15 03:14:17;;;;;;;;;;;;;;;16.02;59.58;101107.75;4919879;28;127620;-61
2022/04/15 03:16:43;;;;;;;;;;;;;;;16.02;59.47;101112.38;4921844;28;98231;-62
2022/04/15 03:19:09;;;;;;;;;;;;;;;16.01;59.38;101106.13;4918160;28;97995;-63
2022/04/15 03:21:36;;;;;;;;;;;;;;;16.01;59.48;101113.47;4920895;28;117713;-63
2022/04/15 03:24:02;;;;;;;;;;;;;;;15.99;59.69;101108.31;4920301;28;98983;-62
2022/04/15 03:26:28;;;;;;;;;;;;;;;15.99;59.80;101107.50;4920599;28;112386;-63
2022/04/15 03:28:54;;;;;;;;;;;;;;;15.98;59.79;101108.63;4920539;28;117609;-63
2022/04/15 03:31:19;;;;;;;;;;;;;;;15.97;59.83;101101.56;4921017;28;128493;-64
2022/04/15 03:33:46;;;;;;;;;;;;;;;15.96;59.71;101111.63;4919738;28;128884;-63
2022/04/15 03:36:12;;;;;;;;;;;;;;;15.95;59.47;101113.53;4921741;28;98077;-61
2022/04/15 03:38:38;;;;;;;;;;;;;;;15.92;59.79;101119.53;4920616;28;114043;-63
2022/04/15 03:41:03;;;;;;;;;;;;;;;15.94;60.00;101116.53;4920350;28;100951;-62
2022/04/15 03:43:30;;;;;;;;;;;;;;;15.92;59.53;101114.13;4920388;28;99154;-62
2022/04/15 03:45:56;;;;;;;;;;;;;;;15.91;59.87;101120.63;4921684;28;98218;-63
2022/04/15 03:48:22;;;;;;;;;;;;;;;15.91;59.60;101123.34;4920426;28;117578;-61
2022/04/15 03:50:48;;;;;;;;;;;;;;;15.90;59.79;101124.44;4920308;28;126797;-63
2022/04/15 03:53:14;;;;;;;;;;;;;;;15.89;60.12;101122.03;4920490;28;128173;-63
2022/04/15 03:55:39;;;;;;;;;;;;;;;15.89;59.96;101122.03;4917779;28;127566;-62
2022/04/15 03:58:05;;;;;;;;;;;;;;;15.89;59.94;101119.31;4920808;28;111144;-62
2022/04/15 04:00:31;;;;;;;;;;;;;;;15.88;59.94;101125.84;4920280;28;127397;-62
2022/04/15 04:02:57;;;;;;;;;;;;;;;15.88;59.75;101125.84;4917739;28;127502;-62
2022/04/15 04:05:23;;;;;;;;;;;;;;;15.87;59.82;101127.72;4918797;28;109178;-63
2022/04/15 04:07:49;;;;;;;;;;;;;;;15.87;59.68;101132.38;4920810;28;98150;-62
2022/04/15 04:10:15;;;;;;;;;;;;;;;15.86;60.06;101137.00;4921317;28;112071;-63
2022/04/15 04:12:42;;;;;;;;;;;;;;;15.86;59.75;101136.19;4919862;28;98201;-62
2022/04/15 04:15:09;;;;;;;;;;;;;;;15.87;59.87;101140.53;4919639;28;127245;-62
2022/04/15 04:17:35;;;;;;;;;;;;;;;15.87;59.78;101135.09;4919679;28;115169;-62
2022/04/15 04:20:01;;;;;;;;;;;;;;;15.85;59.79;101138.09;4917751;28;128786;-62
2022/04/15 04:22:30;;;;;;;;;;;;;;;15.85;59.90;101143.53;4934325;28;99350;-62
2022/04/15 04:24:56;;;;;;;;;;;;;;;15.85;60.07;101135.38;4920308;28;127291;-62
2022/04/15 04:27:22;;;;;;;;;;;;;;;15.85;60.35;101142.72;4919994;28;115925;-62
2022/04/15 04:29:48;;;;;;;;;;;;;;;15.85;59.97;101140.81;4920677;28;99021;-63
2022/04/15 04:32:15;;;;;;;;;;;;;;;15.86;60.01;101144.34;4919682;28;120098;-63
2022/04/15 04:34:41;;;;;;;;;;;;;;;15.84;60.11;101147.34;4921470;28;126901;-62
2022/04/15 04:37:06;;;;;;;;;;;;;;;15.85;60.06;101142.72;4923538;28;116970;-65
2022/04/15 04:39:32;;;;;;;;;;;;;;;15.85;60.07;101148.97;4923579;28;128584;-62
2022/04/15 04:41:58;;;;;;;;;;;;;;;15.86;59.93;101149.78;4921992;28;128030;-63
2022/04/15 04:44:24;;;;;;;;;;;;;;;15.86;60.06;101157.94;4937613;28;126405;-63
2022/04/15 04:46:51;;;;;;;;;;;;;;;15.86;60.13;101158.75;4922661;28;116882;-63
2022/04/15 04:49:17;;;;;;;;;;;;;;;15.85;60.01;101159.84;4922167;28;107384;-62
2022/04/15 04:51:43;;;;;;;;;;;;;;;15.86;59.97;101155.22;4921647;28;98287;-62
2022/04/15 04:54:09;;;;;;;;;;;;;;;15.87;59.95;101156.81;4937400;28;127841;-62
2022/04/15 04:56:34;;;;;;;;;;;;;;;15.88;60.08;101167.44;4934346;28;117773;-63
2022/04/15 04:59:00;;;;;;;;;;;;;;;15.88;60.08;101172.88;4934323;28;127606;-63
2022/04/15 05:01:26;;;;;;;;;;;;;;;15.88;60.31;101174.78;4920547;28;128390;-63
2022/04/15 05:03:52;;;;;;;;;;;;;;;15.89;59.95;101179.13;4936556;28;127769;-63
2022/04/15 05:06:18;;;;;;;;;;;;;;;15.89;60.09;101179.94;4922113;28;117708;-62
2022/04/15 05:08:44;;;;;;;;;;;;;;;15.91;60.32;101191.31;4917389;28;128294;-63
2022/04/15 05:11:10;;;;;;;;;;;;;;;15.91;60.14;101187.78;4922112;28;127949;-62
2022/04/15 05:13:36;;;;;;;;;;;;;;;15.90;60.34;101184.25;4922437;28;126793;-62
2022/04/15 05:16:02;;;;;;;;;;;;;;;15.90;60.42;101194.31;4919174;28;116917;-63
2022/04/15 05:18:28;;;;;;;;;;;;;;;15.89;60.21;101198.94;4904199;28;124692;-62
2022/04/15 05:20:53;;;;;;;;;;;;;;;15.89;60.41;101198.94;4931827;28;127336;-62
2022/04/15 05:23:19;;;;;;;;;;;;;;;15.91;60.15;101198.66;4922151;28;127578;-62
2022/04/15 05:25:45;;;;;;;;;;;;;;;15.89;60.28;101193.50;4937988;28;98251;-62
2022/04/15 05:28:11;;;;;;;;;;;;;;;15.89;60.31;101204.38;4922363;28;106075;-62
2022/04/15 05:30:37;;;;;;;;;;;;;;;15.88;60.10;101210.13;4922043;28;124775;-63
2022/04/15 05:33:03;;;;;;;;;;;;;;;15.88;59.97;101219.09;4921443;28;128299;-63
2022/04/15 05:35:29;;;;;;;;;;;;;;;15.87;60.35;101219.34;4923302;28;111090;-62
2022/04/15 05:37:55;;;;;;;;;;;;;;;15.87;60.19;101228.31;4922251;28;112518;-63
2022/04/15 05:40:22;;;;;;;;;;;;;;;15.89;60.10;101226.13;4922191;28;128230;-64
2022/04/15 05:42:48;;;;;;;;;;;;;;;15.89;60.01;101233.50;4922570;28;98461;-64
2022/04/15 05:45:14;;;;;;;;;;;;;;;15.89;60.09;101230.75;4921505;28;117824;-63
2022/04/15 05:47:40;;;;;;;;;;;;;;;15.88;60.27;101242.75;4922447;28;99014;-63
2022/04/15 05:50:07;;;;;;;;;;;;;;;15.88;60.25;101242.75;4922817;28;103060;-62
2022/04/15 05:52:33;;;;;;;;;;;;;;;15.87;59.94;101244.63;4937006;28;109353;-62
2022/04/15 05:54:59;;;;;;;;;;;;;;;15.87;60.16;101247.34;4922098;28;110890;-63
2022/04/15 05:57:25;;;;;;;;;;;;;;;15.88;60.18;101254.44;4931883;28;126917;-63
2022/04/15 05:59:51;;;;;;;;;;;;;;;15.87;59.84;101258.22;4922741;28;98924;-62
2022/04/15 06:02:17;;;;;;;;;;;;;;;15.87;60.23;101263.66;4921100;28;127530;-62
2022/04/15 06:04:43;;;;;;;;;;;;;;;15.87;60.02;101273.72;4936347;28;115920;-62
2022/04/15 06:07:09;;;;;;;;;;;;;;;15.86;60.18;101270.19;4920572;28;98335;-63
2022/04/15 06:09:35;;;;;;;;;;;;;;;15.88;60.21;101273.47;4920922;28;127952;-62
2022/04/15 06:12:01;;;;;;;;;;;;;;;15.88;59.86;101273.47;4920749;28;128268;-62
2022/04/15 06:14:33;;;;;;;;;;;;;;;15.86;60.25;101281.06;4922126;28;98278;-63
2022/04/15 06:16:59;;;;;;;;;;;;;;;15.85;60.12;101281.38;4922157;28;98618;-63
2022/04/15 06:19:25;;;;;;;;;;;;;;;15.82;60.22;101284.63;4924416;28;128176;-62
2022/04/15 06:21:51;;;;;;;;;;;;;;;15.81;59.95;101289.25;4922991;28;98096;-63
2022/04/15 06:24:17;;;;;;;;;;;;;;;15.79;60.03;101291.44;4922337;28;97728;-63
2022/04/15 06:26:43;;;;;;;;;;;;;;;15.82;60.03;101292.78;4918698;28;127517;-63
2022/04/15 06:29:09;;;;;;;;;;;;;;;15.84;60.15;101291.44;4918340;28;128931;-62
2022/04/15 06:31:35;;;;;;;;;;;;;;;15.87;60.06;101281.88;4918014;28;127586;-63
2022/04/15 06:34:01;;;;;;;;;;;;;;;15.91;59.57;101289.19;4917699;28;116883;-63
2022/04/15 06:36:27;;;;;;;;;;;;;;;15.92;59.69;101292.72;4918345;28;112809;-63
2022/04/15 06:38:53;;;;;;;;;;;;;;;15.90;59.51;101294.91;4919202;28;109871;-62
2022/04/15 06:41:19;;;;;;;;;;;;;;;15.93;59.76;101288.91;4915638;28;127779;-64
2022/04/15 06:43:44;;;;;;;;;;;;;;;16.01;59.34;101284.78;4915292;28;117269;-62
2022/04/15 06:46:10;;;;;;;;;;;;;;;16.11;59.10;101288.25;4932206;28;128368;-63
2022/04/15 06:48:36;;;;;;;;;;;;;;;16.18;58.82;101290.59;4915641;28;117068;-62
2022/04/15 06:51:02;;;;;;;;;;;;;;;16.77;58.16;101294.16;4917357;28;126860;-62
2022/04/15 06:53:29;;;;;;;;;;;;;;;16.97;57.66;101291.22;4933188;28;98074;-63
2022/04/15 06:55:54;;;;;;;;;;;;;;;17.25;57.33;101288.69;4919501;28;124192;-63
2022/04/15 06:58:20;;;;;;;;;;;;;;;17.83;56.03;101286.53;4916345;28;105735;-62
2022/04/15 07:00:52;;;;;;;;;;;;;;;18.22;55.65;101282.66;4917811;28;97979;-62
2022/04/15 07:03:18;;;;;;;;;;;;;;;18.91;54.47;101293.72;4918939;28;98041;-62
2022/04/15 07:05:44;;;;;;;;;;;;;;;19.05;54.44;101297.22;4917689;28;127920;-62
2022/04/15 07:08:11;;;;;;;;;;;;;;;18.98;54.83;101304.22;4917679;28;98500;-63
2022/04/15 07:10:37;;;;;;;;;;;;;;;18.86;55.12;101307.44;4918218;28;98643;-62
2022/04/15 07:13:03;;;;;;;;;;;;;;;18.72;55.31;101293.00;4918119;28;98005;-63
2022/04/15 07:15:29;;;;;;;;;;;;;;;18.61;55.19;101304.06;4918713;28;98553;-62
2022/04/15 07:18:00;;;;;;;;;;;;;;;18.52;55.23;101307.78;4917122;28;121214;-62
2022/04/15 07:20:26;;;;;;;;;;;;;;;18.42;55.36;101307.97;4918659;28;99394;-64
2022/04/15 07:22:58;;;;;;;;;;;;;;;18.24;55.67;101310.44;4916492;28;119169;-63
2022/04/15 07:25:24;;;;;;;;;;;;;;;18.12;55.92;101321.03;4916800;28;98097;-62
2022/04/15 07:27:50;;;;;;;;;;;;;;;18.10;55.92;101318.56;4917305;28;106019;-63
2022/04/15 07:30:17;;;;;;;;;;;;;;;18.09;55.79;101327.06;4917193;28;103669;-62
2022/04/15 07:32:44;;;;;;;;;;;;;;;18.15;55.57;101328.59;4918086;28;97819;-65
2022/04/15 07:35:10;;;;;;;;;;;;;;;18.09;55.88;101319.69;4917023;28;98325;-63
2022/04/15 07:37:36;;;;;;;;;;;;;;;18.14;55.60;101322.31;4916336;28;129039;-63
2022/04/15 07:40:02;;;;;;;;;;;;;;;18.19;55.70;101326.06;4916155;28;126983;-64
2022/04/15 07:42:28;;;;;;;;;;;;;;;18.16;55.70;101324.78;4917535;28;97929;-62
2022/04/15 07:44:54;;;;;;;;;;;;;;;18.11;55.80;101322.91;4916415;28;128146;-62
2022/04/15 07:47:20;;;;;;;;;;;;;;;18.08;55.70;101334.44;4914875;28;128389;-63
2022/04/15 07:49:46;;;;;;;;;;;;;;;17.94;56.00;101333.56;4917322;28;98363;-64
2022/04/15 07:52:12;;;;;;;;;;;;;;;17.84;56.09;101331.81;4915435;28;107350;-64
2022/04/15 07:54:38;;;;;;;;;;;;;;;17.77;56.30;101336.00;4916334;28;127331;-63
2022/04/15 07:57:04;;;;;;;;;;;;;;;17.71;56.39;101345.31;4931119;28;98211;-63
2022/04/15 07:59:30;;;;;;;;;;;;;;;17.61;56.36;101338.09;4916216;28;123907;-63
2022/04/15 08:01:56;;;;;;;;;;;;;;;17.56;56.34;101349.06;4917834;28;98114;-63
2022/04/15 08:04:22;;;;;;;;;;;;;;;17.50;56.38;101344.78;4917107;28;98132;-63
2022/04/15 08:06:48;;;;;;;;;;;;;;;17.42;56.52;101355.22;4914452;28;100519;-62
2022/04/15 08:09:14;;;;;;;;;;;;;;;17.37;56.84;101357.19;4918101;28;98587;-63
2022/04/15 08:11:40;;;;;;;;;;;;;;;17.29;56.85;101352.41;4920434;28;97806;-63
2022/04/15 08:14:06;;;;;;;;;;;;;;;17.26;56.84;101356.53;4919502;28;128186;-64
2022/04/15 08:16:32;;;;;;;;;;;;;;;17.29;56.64;101364.13;4919499;28;127353;-63
2022/04/15 08:18:58;;;;;;;;;;;;;;;17.32;56.63;101360.00;4917331;28;127086;-65
2022/04/15 08:21:24;;;;;;;;;;;;;;;17.38;56.47;101364.28;4922141;28;117703;-63
2022/04/15 08:23:50;;;;;;;;;;;;;;;17.44;56.48;101365.84;4919654;28;117076;-63
2022/04/15 08:26:16;;;;;;;;;;;;;;;17.56;56.19;101362.69;4932939;28;128259;-65
2022/04/15 08:28:42;;;;;;;;;;;;;;;17.61;56.10;101360.72;4919037;28;127583;-63
2022/04/15 08:31:08;;;;;;;;;;;;;;;17.68;55.90;101363.06;4918603;28;98327;-63
2022/04/15 08:33:35;;;;;;;;;;;;;;;17.78;55.87;101367.63;4934130;28;98712;-64
2022/04/15 08:36:01;;;;;;;;;;;;;;;17.89;55.62;101360.91;4919704;28;98984;-65
2022/04/15 08:38:27;;;;;;;;;;;;;;;17.94;55.63;101373.66;4918980;28;122260;-63
2022/04/15 08:40:56;;;;;;;;;;;;;;;17.96;55.51;101380.47;4919596;28;97906;-63
2022/04/15 08:43:24;;;;;;;;;;;;;;;18.02;55.50;101375.72;4920394;28;99675;-63
2022/04/15 08:45:50;;;;;;;;;;;;;;;18.07;55.36;101390.09;4918512;28;99130;-64
2022/04/15 08:48:16;;;;;;;;;;;;;;;18.14;55.38;101387.81;4918484;28;126274;-63
2022/04/15 08:50:42;;;;;;;;;;;;;;;18.18;55.36;101385.28;4919289;28;111466;-62
2022/04/15 08:53:08;;;;;;;;;;;;;;;18.24;55.25;101394.22;4920277;28;98351;-63
2022/04/15 08:55:34;;;;;;;;;;;;;;;18.24;55.23;101395.03;4934571;28;99809;-64
2022/04/15 08:58:00;;;;;;;;;;;;;;;18.16;55.42;101398.44;4919933;28;98406;-63
2022/04/15 09:00:26;;;;;;;;;;;;;;;18.11;55.48;101398.50;4919680;28;116556;-64
2022/04/15 09:02:53;;;;;;;;;;;;;;;18.18;55.34;101398.13;4919581;28;99030;-63
2022/04/15 09:05:25;;;;;;;;;;;;;;;18.15;55.50;101403.06;4934268;28;112920;-63
2022/04/15 09:08:04;;;;;;;;;;;;;;;18.06;55.58;101412.22;4918520;28;98337;-64
2022/04/15 09:10:30;;;;;;;;;;;;;;;17.94;55.94;101417.31;4933286;28;98086;-62
2022/04/15 09:12:56;;;;;;;;;;;;;;;17.89;56.02;101415.47;4918477;28;127872;-62
2022/04/15 09:15:22;;;;;;;;;;;;;;;17.93;55.71;101412.97;4919028;28;108645;-63
2022/04/15 09:17:52;;;;;;;;;;;;;;;17.96;55.71;101425.97;4919700;28;98861;-63
2022/04/15 09:20:18;;;;;;;;;;;;;;;17.90;55.73;101431.53;4913700;28;98457;-63
2022/04/15 09:22:44;;;;;;;;;;;;;;;17.87;55.88;101420.38;4915190;28;98083;-62
2022/04/15 09:25:10;;;;;;;;;;;;;;;17.84;55.97;101427.25;4916943;28;98699;-63
2022/04/15 09:27:36;;;;;;;;;;;;;;;17.84;55.84;101431.88;4932983;28;98233;-62
2022/04/15 09:30:03;;;;;;;;;;;;;;;17.87;55.71;101432.09;4919780;28;97819;-64
2022/04/15 09:32:29;;;;;;;;;;;;;;;17.85;55.79;101428.06;4918988;28;98438;-63
2022/04/15 09:34:55;;;;;;;;;;;;;;;17.82;55.83;101429.44;4933039;28;128019;-62
2022/04/15 09:37:23;;;;;;;;;;;;;;;17.79;55.85;101434.66;4918736;28;98511;-62
2022/04/15 09:40:12;;;;;;;;;;;;;;;17.73;55.96;101439.34;4918290;28;117037;-62
2022/04/15 09:42:48;;;;;;;;;;;;;;;17.66;56.20;101430.72;4914112;28;98357;-63
2022/04/15 09:45:30;;;;;;;;;;;;;;;17.58;56.04;101437.63;4919471;28;98442;-64
2022/04/15 09:47:59;;;;;;;;;;;;;;;17.53;56.38;101436.88;4919486;28;98272;-63
2022/04/15 09:50:38;;;;;;;;;;;;;;;17.42;56.52;101433.47;4919246;28;98216;-63
2022/04/15 09:53:12;;;;;;;;;;;;;;;17.33;56.52;101437.91;4918609;28;99316;-63
2022/04/15 09:55:40;;;;;;;;;;;;;;;17.26;56.72;101443.72;4917900;28;98964;-62
2022/04/15 09:58:28;;;;;;;;;;;;;;;17.23;56.70;101446.19;4918826;28;98636;-64
2022/04/15 10:00:56;;;;;;;;;;;;;;;17.17;56.88;101453.59;4916636;28;97901;-63
2022/04/15 10:03:26;;;;;;;;;;;;;;;17.20;56.79;101449.50;4932445;28;98575;-62
2022/04/15 10:05:58;;;;;;;;;;;;;;;17.29;56.50;101454.03;4918191;28;121101;-62
2022/04/15 10:08:27;;;;;;;;;;;;;;;17.42;56.20;101441.63;4918840;28;98466;-63
2022/04/15 10:10:54;;;;;;;;;;;;;;;17.59;56.01;101452.06;4919356;28;98320;-62
2022/04/15 10:13:20;;;;;;;;;;;;;;;17.74;55.88;101451.06;4916326;28;100971;-63
2022/04/15 10:15:47;;;;;;;;;;;;;;;17.92;55.56;101450.34;4918106;28;98822;-63
2022/04/15 10:18:13;;;;;;;;;;;;;;;18.03;55.48;101448.25;4933069;28;98402;-63
2022/04/15 10:20:39;;;;;;;;;;;;;;;18.01;55.56;101443.09;4915918;28;117201;-61
2022/04/15 10:23:06;;;;;;;;;;;;;;;18.00;55.56;101449.69;4918156;28;99236;-63
2022/04/15 10:25:33;;;;;;;;;;;;;;;17.93;55.78;101448.41;4918137;28;98670;-63
2022/04/15 10:28:09;;;;;;;;;;;;;;;17.86;55.80;101444.13;4917960;28;98802;-62
2022/04/15 10:30:35;;;;;;;;;;;;;;;17.89;55.84;101448.19;4932626;28;116760;-61
2022/04/15 10:33:02;;;;;;;;;;;;;;;17.93;55.73;101451.94;4931464;28;124174;-62
2022/04/15 10:35:30;;;;;;;;;;;;;;;17.91;55.78;101445.97;4919350;28;98540;-63
2022/04/15 10:37:58;;;;;;;;;;;;;;;17.90;55.84;101447.88;4918833;28;98321;-63
2022/04/15 10:40:25;;;;;;;;;;;;;;;17.86;55.80;101446.84;4919494;28;97839;-62
2022/04/15 10:42:51;;;;;;;;;;;;;;;17.87;55.91;101439.47;4918248;28;99366;-63
2022/04/15 10:45:27;;;;;;;;;;;;;;;17.98;55.58;101443.69;4910232;28;99028;-62
2022/04/15 10:47:59;;;;;;;;;;;;;;;18.18;55.33;101430.88;4916774;28;98617;-62
2022/04/15 10:50:29;;;;;;;;;;;;;;;18.47;54.72;101433.44;4933421;28;98231;-62
2022/04/15 10:53:16;;;;;;;;;;;;;;;18.67;54.26;101441.31;4918233;28;97930;-62
2022/04/15 10:55:43;;;;;;;;;;;;;;;18.87;54.09;101435.53;4922080;28;98523;-62
2022/04/15 10:58:12;;;;;;;;;;;;;;;18.96;54.11;101443.03;4918122;28;99292;-64
2022/04/15 11:03:25;;;;;;;;;;;;;;;18.74;54.69;101443.66;4916913;28;99575;-63
2022/04/15 11:05:55;;;;;;;;;;;;;;;18.65;54.48;101449.78;4917509;28;99183;-64
2022/04/15 11:08:25;;;;;;;;;;;;;;;18.54;54.88;101442.84;4917803;28;98175;-64
2022/04/15 11:11:01;;;;;;;;;;;;;;;18.45;54.86;101443.84;4918685;28;97938;-63
2022/04/15 11:14:00;;;;;;;;;;;;;;;18.40;54.89;101455.66;4917580;28;99457;-63
2022/04/15 11:16:42;;;;;;;;;;;;;;;18.27;55.11;101459.09;4917360;28;99132;-63
2022/04/15 11:19:08;;;;;;;;;;;;;;;18.11;55.59;101459.31;4918493;28;99583;-62
2022/04/15 11:21:37;;;;;;;;;;;;;;;18.02;55.66;101457.56;4921688;28;98137;-65
2022/04/15 11:24:04;;;;;;;;;;;;;;;17.99;55.56;101452.69;4918273;28;98675;-63
2022/04/15 11:26:31;;;;;;;;;;;;;;;17.99;55.61;101463.59;4917254;28;98172;-63
2022/04/15 11:28:58;;;;;;;;;;;;;;;17.93;55.73;101453.88;4917899;28;98701;-63
2022/04/15 11:31:25;;;;;;;;;;;;;;;17.95;55.71;101463.34;4917424;28;98279;-64
2022/04/15 11:33:52;;;;;;;;;;;;;;;17.96;55.50;101462.28;4917672;28;98467;-63
2022/04/15 11:36:18;;;;;;;;;;;;;;;17.95;55.52;101460.63;4915453;28;98459;-63
2022/04/15 11:38:48;;;;;;;;;;;;;;;17.93;55.63;101460.13;4932195;28;98069;-62
2022/04/15 11:41:19;;;;;;;;;;;;;;;17.88;55.66;101462.91;4918321;28;97854;-63
2022/04/15 11:43:59;;;;;;;;;;;;;;;17.81;55.82;101463.28;4916807;28;98746;-63
2022/04/15 11:46:27;;;;;;;;;;;;;;;17.73;55.86;101469.34;4916668;28;98050;-62
2022/04/15 11:48:55;;;;;;;;;;;;;;;17.70;56.17;101466.38;4916916;28;98460;-62
2022/04/15 11:51:23;;;;;;;;;;;;;;;17.75;56.12;101458.97;4917402;28;97957;-62
2022/04/15 11:53:49;;;;;;;;;;;;;;;17.81;56.06;101457.81;4916958;28;98718;-63
2022/04/15 11:56:16;;;;;;;;;;;;;;;17.86;55.81;101465.94;4914407;28;101336;-63
2022/04/15 11:58:43;;;;;;;;;;;;;;;17.88;55.95;101452.00;4931553;28;98663;-62
2022/04/15 12:01:09;;;;;;;;;;;;;;;18.00;55.57;101457.03;4917634;28;98153;-63
2022/04/15 12:03:38;;;;;;;;;;;;;;;18.11;55.56;101466.69;4917474;28;116484;-62
2022/04/15 12:06:06;;;;;;;;;;;;;;;18.12;55.69;101460.97;4917661;28;98132;-63
2022/04/15 12:08:32;;;;;;;;;;;;;;;18.08;55.73;101461.84;4915992;28;98158;-63
2022/04/15 12:10:58;;;;;;;;;;;;;;;18.04;55.69;101456.16;4915954;28;115595;-61
2022/04/15 12:13:24;;;;;;;;;;;;;;;18.02;55.87;101455.63;4915019;28;99008;-62
2022/04/15 12:15:50;;;;;;;;;;;;;;;17.95;55.81;101468.81;4916717;28;126554;-62
2022/04/15 12:18:16;;;;;;;;;;;;;;;17.89;55.86;101459.09;4920778;28;127185;-61
2022/04/15 12:20:42;;;;;;;;;;;;;;;17.81;56.16;101466.00;4033141;28;10000769;-61
2022/04/15 12:23:15;;;;;;;;;;;;;;;17.75;56.40;101455.44;4914495;28;98222;-61
2022/04/15 12:31:26;;;;;;;;;;;;;;;17.67;56.33;101465.03;4914938;28;98076;-63
2022/04/15 12:33:52;;;;;;;;;;;;;;;17.67;56.20;101465.03;4916270;28;98096;-63
2022/04/15 12:36:19;;;;;;;;;;;;;;;17.66;56.20;101461.50;4916687;28;117802;-63
2022/04/15 12:39:04;;;;;;;;;;;;;;;17.75;56.02;101477.25;4915878;28;98632;-61